sensor_id;sensor_type;location;lat;lon;timestamp;temperature;humidity
36280;DHT22;22317;47.936;12.742;2022-09-06T00:00:29;14.00;57.70
36280;DHT22;22317;47.936;12.742;2022-09-06T00:02:54;14.00;57.80
36280;DHT22;22317;47.936;12.742;2022-09-06T00:22:25;13.90;58.50
36280;DHT22;22317;47.936;12.742;2022-09-06T00:24:51;13.90;59.00
36280;DHT22;22317;47.936;12.742;2022-09-06T00:27:17;14.20;63.90
36280;DHT22;22317;47.936;12.742;2022-09-06T00:29:42;13.80;58.60
36280;DHT22;22317;47.936;12.742;2022-09-06T00:32:08;13.80;59.10
36280;DHT22;22317;47.936;12.742;2022-09-06T00:34:34;13.90;59.10
36280;DHT22;22317;47.936;12.742;2022-09-06T00:37:00;13.90;59.20
36280;DHT22;22317;47.936;12.742;2022-09-06T00:39:26;13.80;58.70
36280;DHT22;22317;47.936;12.742;2022-09-06T00:41:52;13.80;59.10
36280;DHT22;22317;47.936;12.742;2022-09-06T00:44:18;13.80;58.70
36280;DHT22;22317;47.936;12.742;2022-09-06T00:46:46;13.80;59.20
36280;DHT22;22317;47.936;12.742;2022-09-06T00:49:56;13.70;58.50
36280;DHT22;22317;47.936;12.742;2022-09-06T00:52:16;13.70;59.20
36280;DHT22;22317;47.936;12.742;2022-09-06T00:54:43;13.70;59.10
36280;DHT22;22317;47.936;12.742;2022-09-06T00:57:10;13.60;58.90
36280;DHT22;22317;47.936;12.742;2022-09-06T00:59:37;13.60;58.90
36280;DHT22;22317;47.936;12.742;2022-09-06T01:02:04;13.60;59.40
36280;DHT22;22317;47.936;12.742;2022-09-06T01:04:30;13.60;59.40
36280;DHT22;22317;47.936;12.742;2022-09-06T01:17:54;13.40;58.90
36280;DHT22;22317;47.936;12.742;2022-09-06T01:28:32;13.30;60.20
36280;DHT22;22317;47.936;12.742;2022-09-06T01:31:22;13.20;61.70
36280;DHT22;22317;47.936;12.742;2022-09-06T01:36:50;13.30;59.90
36280;DHT22;22317;47.936;12.742;2022-09-06T01:39:31;13.30;59.50
36280;DHT22;22317;47.936;12.742;2022-09-06T01:42:01;13.20;60.10
36280;DHT22;22317;47.936;12.742;2022-09-06T01:44:30;13.30;60.40
36280;DHT22;22317;47.936;12.742;2022-09-06T01:47:21;13.30;60.50
36280;DHT22;22317;47.936;12.742;2022-09-06T01:55:31;13.20;60.60
36280;DHT22;22317;47.936;12.742;2022-09-06T01:58:20;13.50;66.60
36280;DHT22;22317;47.936;12.742;2022-09-06T02:03:34;13.20;66.20
36280;DHT22;22317;47.936;12.742;2022-09-06T02:06:11;13.20;66.40
36280;DHT22;22317;47.936;12.742;2022-09-06T02:08:47;13.20;84.60
36280;DHT22;22317;47.936;12.742;2022-09-06T02:11:14;13.30;67.70
36280;DHT22;22317;47.936;12.742;2022-09-06T02:13:58;13.50;66.60
36280;DHT22;22317;47.936;12.742;2022-09-06T02:16:26;13.50;65.40
36280;DHT22;22317;47.936;12.742;2022-09-06T02:21:29;13.50;68.50
36280;DHT22;22317;47.936;12.742;2022-09-06T02:23:59;13.20;67.40
36280;DHT22;22317;47.936;12.742;2022-09-06T02:26:29;13.50;66.90
36280;DHT22;22317;47.936;12.742;2022-09-06T02:28:57;12.80;85.10
36280;DHT22;22317;47.936;12.742;2022-09-06T02:31:36;13.30;68.80
36280;DHT22;22317;47.936;12.742;2022-09-06T02:34:03;13.30;64.00
36280;DHT22;22317;47.936;12.742;2022-09-06T02:36:30;13.30;68.80
36280;DHT22;22317;47.936;12.742;2022-09-06T02:38:59;12.80;59.80
36280;DHT22;22317;47.936;12.742;2022-09-06T02:41:27;12.80;60.30
36280;DHT22;22317;47.936;12.742;2022-09-06T02:43:53;12.80;60.40
36280;DHT22;22317;47.936;12.742;2022-09-06T02:46:19;12.80;60.50
36280;DHT22;22317;47.936;12.742;2022-09-06T02:48:45;12.80;60.30
36280;DHT22;22317;47.936;12.742;2022-09-06T02:51:11;12.70;60.20
36280;DHT22;22317;47.936;12.742;2022-09-06T02:56:04;12.80;60.40
36280;DHT22;22317;47.936;12.742;2022-09-06T03:00:56;12.80;60.40
36280;DHT22;22317;47.936;12.742;2022-09-06T03:03:22;12.80;60.40
36280;DHT22;22317;47.936;12.742;2022-09-06T03:05:49;12.70;60.40
36280;DHT22;22317;47.936;12.742;2022-09-06T03:08:17;12.70;60.40
36280;DHT22;22317;47.936;12.742;2022-09-06T03:10:54;12.60;60.40
36280;DHT22;22317;47.936;12.742;2022-09-06T03:15:52;12.60;60.50
36280;DHT22;22317;47.936;12.742;2022-09-06T03:18:18;12.70;60.60
36280;DHT22;22317;47.936;12.742;2022-09-06T03:25:36;12.70;60.70
36280;DHT22;22317;47.936;12.742;2022-09-06T03:28:02;12.70;60.70
36280;DHT22;22317;47.936;12.742;2022-09-06T03:30:28;12.60;60.60
36280;DHT22;22317;47.936;12.742;2022-09-06T03:42:38;12.60;60.40
36280;DHT22;22317;47.936;12.742;2022-09-06T03:52:22;12.40;60.60
36280;DHT22;22317;47.936;12.742;2022-09-06T04:02:06;12.40;60.80
36280;DHT22;22317;47.936;12.742;2022-09-06T04:04:32;12.40;61.40
36280;DHT22;22317;47.936;12.742;2022-09-06T04:06:58;12.30;61.50
36280;DHT22;22317;47.936;12.742;2022-09-06T04:09:24;12.20;60.90
36280;DHT22;22317;47.936;12.742;2022-09-06T04:11:49;12.30;61.70
36280;DHT22;22317;47.936;12.742;2022-09-06T04:14:15;12.30;61.70
36280;DHT22;22317;47.936;12.742;2022-09-06T04:16:41;12.30;61.20
36280;DHT22;22317;47.936;12.742;2022-09-06T04:19:07;12.20;61.10
36280;DHT22;22317;47.936;12.742;2022-09-06T04:21:32;12.30;61.80
36280;DHT22;22317;47.936;12.742;2022-09-06T04:23:58;12.30;62.70
36280;DHT22;22317;47.936;12.742;2022-09-06T04:26:24;12.20;62.00
36280;DHT22;22317;47.936;12.742;2022-09-06T04:28:50;12.10;66.70
36280;DHT22;22317;47.936;12.742;2022-09-06T04:31:15;12.20;62.10
36280;DHT22;22317;47.936;12.742;2022-09-06T04:33:41;12.20;62.10
36280;DHT22;22317;47.936;12.742;2022-09-06T04:36:10;12.20;62.10
36280;DHT22;22317;47.936;12.742;2022-09-06T04:41:05;12.10;61.30
36280;DHT22;22317;47.936;12.742;2022-09-06T04:43:31;11.80;61.50
36280;DHT22;22317;47.936;12.742;2022-09-06T04:46:20;12.10;62.10
36280;DHT22;22317;47.936;12.742;2022-09-06T04:48:47;12.00;65.40
36280;DHT22;22317;47.936;12.742;2022-09-06T04:51:14;12.00;62.00
36280;DHT22;22317;47.936;12.742;2022-09-06T04:53:39;12.10;62.20
36280;DHT22;22317;47.936;12.742;2022-09-06T04:56:05;11.30;61.20
36280;DHT22;22317;47.936;12.742;2022-09-06T04:58:31;12.00;62.30
36280;DHT22;22317;47.936;12.742;2022-09-06T05:00:57;12.00;61.70
36280;DHT22;22317;47.936;12.742;2022-09-06T05:03:23;12.00;62.30
36280;DHT22;22317;47.936;12.742;2022-09-06T05:05:49;12.00;61.70
36280;DHT22;22317;47.936;12.742;2022-09-06T05:08:14;12.00;62.30
36280;DHT22;22317;47.936;12.742;2022-09-06T05:13:07;12.00;61.80
36280;DHT22;22317;47.936;12.742;2022-09-06T05:15:32;12.10;62.50
36280;DHT22;22317;47.936;12.742;2022-09-06T05:18:03;12.10;62.40
36280;DHT22;22317;47.936;12.742;2022-09-06T05:20:30;12.20;62.00
36280;DHT22;22317;47.936;12.742;2022-09-06T05:22:55;12.10;62.40
36280;DHT22;22317;47.936;12.742;2022-09-06T05:25:21;12.20;61.80
36280;DHT22;22317;47.936;12.742;2022-09-06T05:27:47;12.20;62.30
36280;DHT22;22317;47.936;12.742;2022-09-06T05:30:13;12.30;62.00
36280;DHT22;22317;47.936;12.742;2022-09-06T05:32:39;12.20;62.50
36280;DHT22;22317;47.936;12.742;2022-09-06T05:35:05;12.20;61.90
36280;DHT22;22317;47.936;12.742;2022-09-06T05:37:31;12.30;62.60
36280;DHT22;22317;47.936;12.742;2022-09-06T05:39:57;12.40;62.10
36280;DHT22;22317;47.936;12.742;2022-09-06T05:42:24;12.40;62.70
36280;DHT22;22317;47.936;12.742;2022-09-06T05:44:50;12.40;62.90
36280;DHT22;22317;47.936;12.742;2022-09-06T05:47:16;12.50;62.90
36280;DHT22;22317;47.936;12.742;2022-09-06T05:49:41;12.60;62.30
36280;DHT22;22317;47.936;12.742;2022-09-06T05:52:07;12.60;63.00
36280;DHT22;22317;47.936;12.742;2022-09-06T05:54:33;12.60;63.10
36280;DHT22;22317;47.936;12.742;2022-09-06T05:56:59;12.70;63.20
36280;DHT22;22317;47.936;12.742;2022-09-06T05:59:24;12.90;62.60
36280;DHT22;22317;47.936;12.742;2022-09-06T06:01:52;12.90;63.20
36280;DHT22;22317;47.936;12.742;2022-09-06T06:04:20;13.00;63.10
36280;DHT22;22317;47.936;12.742;2022-09-06T06:06:47;13.10;63.10
36280;DHT22;22317;47.936;12.742;2022-09-06T06:09:14;13.10;62.20
36280;DHT22;22317;47.936;12.742;2022-09-06T06:11:40;13.20;62.90
36280;DHT22;22317;47.936;12.742;2022-09-06T06:14:06;13.20;62.80
36280;DHT22;22317;47.936;12.742;2022-09-06T06:16:32;13.30;62.80
36280;DHT22;22317;47.936;12.742;2022-09-06T06:18:58;13.30;67.10
36280;DHT22;22317;47.936;12.742;2022-09-06T06:21:26;13.40;62.50
36280;DHT22;22317;47.936;12.742;2022-09-06T06:24:00;13.50;63.20
36280;DHT22;22317;47.936;12.742;2022-09-06T06:26:28;13.60;63.20
36280;DHT22;22317;47.936;12.742;2022-09-06T06:28:55;14.00;66.00
36280;DHT22;22317;47.936;12.742;2022-09-06T06:31:23;13.80;62.70
36280;DHT22;22317;47.936;12.742;2022-09-06T06:33:49;14.00;63.40
36280;DHT22;22317;47.936;12.742;2022-09-06T06:38:42;14.20;65.70
36280;DHT22;22317;47.936;12.742;2022-09-06T06:43:36;14.50;62.60
36280;DHT22;22317;47.936;12.742;2022-09-06T06:48:28;14.70;63.00
36280;DHT22;22317;47.936;12.742;2022-09-06T06:50:54;14.90;62.50
36280;DHT22;22317;47.936;12.742;2022-09-06T06:53:20;15.00;63.10
36280;DHT22;22317;47.936;12.742;2022-09-06T06:55:46;15.20;63.00
36280;DHT22;22317;47.936;12.742;2022-09-06T06:58:16;15.50;62.80
36280;DHT22;22317;47.936;12.742;2022-09-06T07:00:43;15.70;61.80
36280;DHT22;22317;47.936;12.742;2022-09-06T07:03:10;15.90;62.10
36280;DHT22;22317;47.936;12.742;2022-09-06T07:05:36;16.10;61.50
36280;DHT22;22317;47.936;12.742;2022-09-06T07:08:03;16.30;60.80
36280;DHT22;22317;47.936;12.742;2022-09-06T07:10:29;16.50;59.70
36280;DHT22;22317;47.936;12.742;2022-09-06T07:12:55;16.70;59.20
36280;DHT22;22317;47.936;12.742;2022-09-06T07:15:20;16.70;59.60
36280;DHT22;22317;47.936;12.742;2022-09-06T07:17:46;16.90;59.20
36280;DHT22;22317;47.936;12.742;2022-09-06T07:20:12;16.90;58.00
36280;DHT22;22317;47.936;12.742;2022-09-06T07:22:38;17.00;58.40
36280;DHT22;22317;47.936;12.742;2022-09-06T07:25:05;17.10;58.30
36280;DHT22;22317;47.936;12.742;2022-09-06T07:27:31;17.20;58.30
36280;DHT22;22317;47.936;12.742;2022-09-06T07:29:57;17.30;57.70
36280;DHT22;22317;47.936;12.742;2022-09-06T07:32:23;17.40;58.20
36280;DHT22;22317;47.936;12.742;2022-09-06T07:34:49;17.50;58.10
36280;DHT22;22317;47.936;12.742;2022-09-06T07:37:15;17.60;57.50
36280;DHT22;22317;47.936;12.742;2022-09-06T07:39:40;17.80;57.10
36280;DHT22;22317;47.936;12.742;2022-09-06T07:42:06;17.90;57.60
36280;DHT22;22317;47.936;12.742;2022-09-06T07:44:32;18.00;57.40
36280;DHT22;22317;47.936;12.742;2022-09-06T07:46:58;18.10;57.20
36280;DHT22;22317;47.936;12.742;2022-09-06T07:49:27;18.20;56.20
36280;DHT22;22317;47.936;12.742;2022-09-06T07:51:54;18.20;56.70
36280;DHT22;22317;47.936;12.742;2022-09-06T07:54:21;18.20;56.40
36280;DHT22;22317;47.936;12.742;2022-09-06T07:56:47;18.20;56.50
36280;DHT22;22317;47.936;12.742;2022-09-06T07:59:12;18.40;55.70
36280;DHT22;22317;47.936;12.742;2022-09-06T08:01:39;18.40;56.10
36280;DHT22;22317;47.936;12.742;2022-09-06T08:04:10;18.40;55.70
36280;DHT22;22317;47.936;12.742;2022-09-06T08:06:41;18.50;55.10
36280;DHT22;22317;47.936;12.742;2022-09-06T08:09:08;18.70;55.20
36280;DHT22;22317;47.936;12.742;2022-09-06T08:11:35;18.80;55.60
36280;DHT22;22317;47.936;12.742;2022-09-06T08:14:02;19.00;55.40
36280;DHT22;22317;47.936;12.742;2022-09-06T08:16:31;19.20;55.30
36280;DHT22;22317;47.936;12.742;2022-09-06T08:18:59;19.80;55.40
36280;DHT22;22317;47.936;12.742;2022-09-06T08:21:30;19.60;54.70
36280;DHT22;22317;47.936;12.742;2022-09-06T08:24:01;19.80;54.90
36280;DHT22;22317;47.936;12.742;2022-09-06T08:26:29;19.90;53.90
36280;DHT22;22317;47.936;12.742;2022-09-06T08:28:57;19.80;53.70
36280;DHT22;22317;47.936;12.742;2022-09-06T08:31:26;20.10;53.30
36280;DHT22;22317;47.936;12.742;2022-09-06T08:33:52;20.20;52.60
36280;DHT22;22317;47.936;12.742;2022-09-06T08:36:19;20.10;51.60
36280;DHT22;22317;47.936;12.742;2022-09-06T08:38:45;19.90;51.90
36280;DHT22;22317;47.936;12.742;2022-09-06T08:44:49;20.10;52.00
36280;DHT22;22317;47.936;12.742;2022-09-06T08:47:20;20.10;51.20
36280;DHT22;22317;47.936;12.742;2022-09-06T08:49:48;20.20;51.10
36280;DHT22;22317;47.936;12.742;2022-09-06T08:52:43;20.20;50.60
36280;DHT22;22317;47.936;12.742;2022-09-06T09:00:38;20.30;50.10
36280;DHT22;22317;47.936;12.742;2022-09-06T09:03:07;20.30;50.50
36280;DHT22;22317;47.936;12.742;2022-09-06T09:05:35;20.40;50.20
36280;DHT22;22317;47.936;12.742;2022-09-06T09:11:17;20.50;49.00
36280;DHT22;22317;47.936;12.742;2022-09-06T09:13:50;20.60;49.60
36280;DHT22;22317;47.936;12.742;2022-09-06T09:16:17;20.60;48.90
36280;DHT22;22317;47.936;12.742;2022-09-06T09:18:46;20.90;48.80
36280;DHT22;22317;47.936;12.742;2022-09-06T09:21:16;20.70;48.70
36280;DHT22;22317;47.936;12.742;2022-09-06T09:23:52;20.80;48.30
36280;DHT22;22317;47.936;12.742;2022-09-06T09:26:20;20.80;48.10
36280;DHT22;22317;47.936;12.742;2022-09-06T09:29:10;21.30;48.20
36280;DHT22;22317;47.936;12.742;2022-09-06T09:31:46;21.00;47.70
36280;DHT22;22317;47.936;12.742;2022-09-06T09:34:26;21.10;47.90
36280;DHT22;22317;47.936;12.742;2022-09-06T09:39:43;21.40;47.00
36280;DHT22;22317;47.936;12.742;2022-09-06T09:42:09;21.40;47.40
36280;DHT22;22317;47.936;12.742;2022-09-06T09:44:43;21.50;47.50
36280;DHT22;22317;47.936;12.742;2022-09-06T09:47:32;21.60;47.20
36280;DHT22;22317;47.936;12.742;2022-09-06T09:49:58;21.70;45.90
36280;DHT22;22317;47.936;12.742;2022-09-06T09:54:50;21.70;46.10
36280;DHT22;22317;47.936;12.742;2022-09-06T09:57:21;21.70;46.10
36280;DHT22;22317;47.936;12.742;2022-09-06T09:59:55;21.70;45.50
36280;DHT22;22317;47.936;12.742;2022-09-06T10:02:36;21.70;46.40
36280;DHT22;22317;47.936;12.742;2022-09-06T10:07:56;21.70;45.60
36280;DHT22;22317;47.936;12.742;2022-09-06T10:10:28;21.80;45.30
36280;DHT22;22317;47.936;12.742;2022-09-06T10:13:25;21.90;46.60
36280;DHT22;22317;47.936;12.742;2022-09-06T10:15:52;21.90;45.00
36280;DHT22;22317;47.936;12.742;2022-09-06T10:18:38;22.10;45.90
36280;DHT22;22317;47.936;12.742;2022-09-06T10:21:14;22.20;45.70
36280;DHT22;22317;47.936;12.742;2022-09-06T10:24:11;22.60;45.80
36280;DHT22;22317;47.936;12.742;2022-09-06T10:26:51;22.60;46.30
36280;DHT22;22317;47.936;12.742;2022-09-06T10:29:54;22.90;45.70
36280;DHT22;22317;47.936;12.742;2022-09-06T10:38:21;23.50;45.00
36280;DHT22;22317;47.936;12.742;2022-09-06T10:41:05;23.70;44.30
36280;DHT22;22317;47.936;12.742;2022-09-06T10:46:25;23.90;43.80
36280;DHT22;22317;47.936;12.742;2022-09-06T10:48:52;24.20;43.90
36280;DHT22;22317;47.936;12.742;2022-09-06T10:51:38;24.00;43.80
36280;DHT22;22317;47.936;12.742;2022-09-06T10:54:24;24.20;43.70
36280;DHT22;22317;47.936;12.742;2022-09-06T10:56:54;24.30;43.80
36280;DHT22;22317;47.936;12.742;2022-09-06T10:59:32;24.40;43.20
36280;DHT22;22317;47.936;12.742;2022-09-06T11:04:44;24.40;43.30
36280;DHT22;22317;47.936;12.742;2022-09-06T11:07:18;24.40;43.30
36280;DHT22;22317;47.936;12.742;2022-09-06T11:09:52;24.50;42.80
36280;DHT22;22317;47.936;12.742;2022-09-06T11:12:37;24.50;43.30
36280;DHT22;22317;47.936;12.742;2022-09-06T11:15:05;24.60;43.50
36280;DHT22;22317;47.936;12.742;2022-09-06T11:20:19;25.30;42.40
36280;DHT22;22317;47.936;12.742;2022-09-06T11:27:55;26.00;41.20
36280;DHT22;22317;47.936;12.742;2022-09-06T11:30:22;26.10;40.80
36280;DHT22;22317;47.936;12.742;2022-09-06T11:32:59;26.30;41.40
36280;DHT22;22317;47.936;12.742;2022-09-06T11:40:46;27.30;39.90
36280;DHT22;22317;47.936;12.742;2022-09-06T11:45:44;27.90;39.20
36280;DHT22;22317;47.936;12.742;2022-09-06T11:56:38;29.60;36.50
36280;DHT22;22317;47.936;12.742;2022-09-06T11:59:06;31.10;36.30
36280;DHT22;22317;47.936;12.742;2022-09-06T12:01:36;31.10;35.70
36280;DHT22;22317;47.936;12.742;2022-09-06T12:06:42;33.50;31.90
36280;DHT22;22317;47.936;12.742;2022-09-06T12:09:46;34.40;30.90
36280;DHT22;22317;47.936;12.742;2022-09-06T12:15:29;35.40;29.80
36280;DHT22;22317;47.936;12.742;2022-09-06T12:17:59;36.70;29.50
36280;DHT22;22317;47.936;12.742;2022-09-06T12:23:39;37.40;27.70
36280;DHT22;22317;47.936;12.742;2022-09-06T12:26:07;38.10;27.30
36280;DHT22;22317;47.936;12.742;2022-09-06T12:31:26;39.20;25.70
36280;DHT22;22317;47.936;12.742;2022-09-06T12:33:54;39.50;24.90
36280;DHT22;22317;47.936;12.742;2022-09-06T12:36:24;39.40;24.80
36280;DHT22;22317;47.936;12.742;2022-09-06T12:39:03;39.00;24.80
36280;DHT22;22317;47.936;12.742;2022-09-06T12:41:37;38.70;24.80
36280;DHT22;22317;47.936;12.742;2022-09-06T12:44:04;38.30;24.40
36280;DHT22;22317;47.936;12.742;2022-09-06T12:46:33;38.10;24.00
36280;DHT22;22317;47.936;12.742;2022-09-06T12:49:20;37.70;24.10
36280;DHT22;22317;47.936;12.742;2022-09-06T12:51:46;37.40;24.40
36280;DHT22;22317;47.936;12.742;2022-09-06T12:54:22;37.40;24.70
36280;DHT22;22317;47.936;12.742;2022-09-06T12:56:48;37.80;24.70
36280;DHT22;22317;47.936;12.742;2022-09-06T12:59:23;38.10;24.30
36280;DHT22;22317;47.936;12.742;2022-09-06T13:02:05;38.50;24.20
36280;DHT22;22317;47.936;12.742;2022-09-06T13:07:05;39.40;24.70
36280;DHT22;22317;47.936;12.742;2022-09-06T13:09:33;39.40;24.30
36280;DHT22;22317;47.936;12.742;2022-09-06T13:12:13;40.00;24.00
36280;DHT22;22317;47.936;12.742;2022-09-06T13:14:42;40.30;23.20
36280;DHT22;22317;47.936;12.742;2022-09-06T13:17:25;40.40;23.70
36280;DHT22;22317;47.936;12.742;2022-09-06T13:19:51;40.60;22.70
36280;DHT22;22317;47.936;12.742;2022-09-06T13:22:45;40.50;22.60
36280;DHT22;22317;47.936;12.742;2022-09-06T13:25:32;40.50;22.30
36280;DHT22;22317;47.936;12.742;2022-09-06T13:27:58;40.50;22.30
36280;DHT22;22317;47.936;12.742;2022-09-06T13:30:39;40.60;22.70
36280;DHT22;22317;47.936;12.742;2022-09-06T13:33:23;40.80;22.30
36280;DHT22;22317;47.936;12.742;2022-09-06T13:36:46;40.70;21.90
36280;DHT22;22317;47.936;12.742;2022-09-06T13:38:52;40.30;22.30
36280;DHT22;22317;47.936;12.742;2022-09-06T13:46:27;39.90;21.90
36280;DHT22;22317;47.936;12.742;2022-09-06T13:48:57;39.50;22.30
36280;DHT22;22317;47.936;12.742;2022-09-06T13:51:23;39.40;22.30
36280;DHT22;22317;47.936;12.742;2022-09-06T13:53:51;39.30;22.30
36280;DHT22;22317;47.936;12.742;2022-09-06T13:56:28;39.30;22.40
36280;DHT22;22317;47.936;12.742;2022-09-06T13:58:53;38.80;22.10
36280;DHT22;22317;47.936;12.742;2022-09-06T14:01:19;38.80;22.20
36280;DHT22;22317;47.936;12.742;2022-09-06T14:03:45;38.40;22.10
36280;DHT22;22317;47.936;12.742;2022-09-06T14:06:11;37.80;22.60
36280;DHT22;22317;47.936;12.742;2022-09-06T14:08:37;37.70;22.70
36280;DHT22;22317;47.936;12.742;2022-09-06T14:11:04;36.60;22.40
36280;DHT22;22317;47.936;12.742;2022-09-06T14:13:30;38.10;23.40
36280;DHT22;22317;47.936;12.742;2022-09-06T14:15:56;39.10;23.60
36280;DHT22;22317;47.936;12.742;2022-09-06T14:18:21;40.60;23.30
36280;DHT22;22317;47.936;12.742;2022-09-06T14:20:54;42.10;22.60
36280;DHT22;22317;47.936;12.742;2022-09-06T14:23:24;43.40;21.20
36280;DHT22;22317;47.936;12.742;2022-09-06T14:25:58;44.10;20.50
36280;DHT22;22317;47.936;12.742;2022-09-06T14:28:24;44.60;19.70
36280;DHT22;22317;47.936;12.742;2022-09-06T14:30:51;45.30;19.80
36280;DHT22;22317;47.936;12.742;2022-09-06T14:33:18;45.80;19.20
36280;DHT22;22317;47.936;12.742;2022-09-06T14:35:44;46.40;19.10
36280;DHT22;22317;47.936;12.742;2022-09-06T14:38:10;47.30;18.80
36280;DHT22;22317;47.936;12.742;2022-09-06T14:40:38;48.20;18.30
36280;DHT22;22317;47.936;12.742;2022-09-06T14:43:04;48.90;17.70
36280;DHT22;22317;47.936;12.742;2022-09-06T14:45:33;49.70;17.30
36280;DHT22;22317;47.936;12.742;2022-09-06T14:47:58;50.40;16.90
36280;DHT22;22317;47.936;12.742;2022-09-06T14:50:24;50.90;16.50
36280;DHT22;22317;47.936;12.742;2022-09-06T14:52:51;51.40;16.20
36280;DHT22;22317;47.936;12.742;2022-09-06T14:55:17;51.80;15.70
36280;DHT22;22317;47.936;12.742;2022-09-06T14:57:43;52.00;15.30
36280;DHT22;22317;47.936;12.742;2022-09-06T15:00:10;52.10;15.10
36280;DHT22;22317;47.936;12.742;2022-09-06T15:02:36;51.90;14.80
36280;DHT22;22317;47.936;12.742;2022-09-06T15:05:02;51.40;14.80
36280;DHT22;22317;47.936;12.742;2022-09-06T15:07:29;50.80;15.20
36280;DHT22;22317;47.936;12.742;2022-09-06T15:09:56;49.80;15.40
36280;DHT22;22317;47.936;12.742;2022-09-06T15:12:22;47.50;14.90
36280;DHT22;22317;47.936;12.742;2022-09-06T15:14:48;47.80;15.90
36280;DHT22;22317;47.936;12.742;2022-09-06T15:17:13;47.20;16.30
36280;DHT22;22317;47.936;12.742;2022-09-06T15:19:39;46.90;16.50
36280;DHT22;22317;47.936;12.742;2022-09-06T15:22:05;46.70;16.70
36280;DHT22;22317;47.936;12.742;2022-09-06T15:24:32;47.00;17.10
36280;DHT22;22317;47.936;12.742;2022-09-06T15:26:58;47.30;16.90
36280;DHT22;22317;47.936;12.742;2022-09-06T15:29:25;47.50;16.60
36280;DHT22;22317;47.936;12.742;2022-09-06T15:31:54;47.30;16.40
36280;DHT22;22317;47.936;12.742;2022-09-06T15:34:22;47.00;16.50
36280;DHT22;22317;47.936;12.742;2022-09-06T15:36:49;46.60;16.30
36280;DHT22;22317;47.936;12.742;2022-09-06T15:39:15;45.80;16.40
36280;DHT22;22317;47.936;12.742;2022-09-06T15:41:41;44.80;16.70
36280;DHT22;22317;47.936;12.742;2022-09-06T15:44:13;43.80;17.10
36280;DHT22;22317;47.936;12.742;2022-09-06T15:49:14;42.80;18.00
36280;DHT22;22317;47.936;12.742;2022-09-06T15:51:40;42.40;18.20
36280;DHT22;22317;47.936;12.742;2022-09-06T15:54:07;41.70;18.30
36280;DHT22;22317;47.936;12.742;2022-09-06T15:56:33;41.30;18.60
36280;DHT22;22317;47.936;12.742;2022-09-06T15:58:59;40.80;18.90
36280;DHT22;22317;47.936;12.742;2022-09-06T16:01:25;40.30;19.20
36280;DHT22;22317;47.936;12.742;2022-09-06T16:03:53;40.00;19.60
36280;DHT22;22317;47.936;12.742;2022-09-06T16:06:21;39.70;20.00
36280;DHT22;22317;47.936;12.742;2022-09-06T16:08:50;39.00;19.70
36280;DHT22;22317;47.936;12.742;2022-09-06T16:11:17;39.00;20.30
36280;DHT22;22317;47.936;12.742;2022-09-06T16:13:43;38.30;20.40
36280;DHT22;22317;47.936;12.742;2022-09-06T16:16:12;37.50;20.60
36280;DHT22;22317;47.936;12.742;2022-09-06T16:18:40;36.80;21.20
36280;DHT22;22317;47.936;12.742;2022-09-06T16:23:40;35.40;22.20
36280;DHT22;22317;47.936;12.742;2022-09-06T16:26:08;34.70;22.70
36280;DHT22;22317;47.936;12.742;2022-09-06T16:28:35;34.10;23.40
36280;DHT22;22317;47.936;12.742;2022-09-06T16:31:03;33.70;24.20
36280;DHT22;22317;47.936;12.742;2022-09-06T16:33:31;33.30;25.00
36280;DHT22;22317;47.936;12.742;2022-09-06T16:36:02;32.90;25.40
36280;DHT22;22317;47.936;12.742;2022-09-06T16:38:32;32.40;25.90
36280;DHT22;22317;47.936;12.742;2022-09-06T16:41:00;32.10;26.40
36280;DHT22;22317;47.936;12.742;2022-09-06T16:43:27;31.80;26.70
36280;DHT22;22317;47.936;12.742;2022-09-06T16:45:57;31.40;26.90
36280;DHT22;22317;47.936;12.742;2022-09-06T16:48:24;31.00;27.30
36280;DHT22;22317;47.936;12.742;2022-09-06T16:50:49;30.50;27.50
36280;DHT22;22317;47.936;12.742;2022-09-06T16:53:15;30.10;27.90
36280;DHT22;22317;47.936;12.742;2022-09-06T16:55:41;29.70;28.30
36280;DHT22;22317;47.936;12.742;2022-09-06T16:58:07;29.30;28.80
36280;DHT22;22317;47.936;12.742;2022-09-06T17:00:33;28.80;29.20
36280;DHT22;22317;47.936;12.742;2022-09-06T17:02:59;28.50;29.70
36280;DHT22;22317;47.936;12.742;2022-09-06T17:05:25;28.10;30.00
36280;DHT22;22317;47.936;12.742;2022-09-06T17:07:50;27.70;30.60
36280;DHT22;22317;47.936;12.742;2022-09-06T17:10:17;27.30;31.20
36280;DHT22;22317;47.936;12.742;2022-09-06T17:12:43;27.00;31.80
36280;DHT22;22317;47.936;12.742;2022-09-06T17:15:09;26.70;32.40
36280;DHT22;22317;47.936;12.742;2022-09-06T17:17:35;26.30;32.80
36280;DHT22;22317;47.936;12.742;2022-09-06T17:20:01;26.00;33.50
36280;DHT22;22317;47.936;12.742;2022-09-06T17:22:27;25.70;34.20
36280;DHT22;22317;47.936;12.742;2022-09-06T17:24:53;25.40;34.40
36280;DHT22;22317;47.936;12.742;2022-09-06T17:27:18;25.10;35.60
36280;DHT22;22317;47.936;12.742;2022-09-06T17:29:44;24.80;36.00
36280;DHT22;22317;47.936;12.742;2022-09-06T17:32:10;24.60;36.50
36280;DHT22;22317;47.936;12.742;2022-09-06T17:34:37;24.10;36.80
36280;DHT22;22317;47.936;12.742;2022-09-06T17:37:04;24.10;37.40
36280;DHT22;22317;47.936;12.742;2022-09-06T17:39:30;23.80;37.80
36280;DHT22;22317;47.936;12.742;2022-09-06T17:41:56;23.60;38.20
36280;DHT22;22317;47.936;12.742;2022-09-06T17:44:24;23.40;38.60
36280;DHT22;22317;47.936;12.742;2022-09-06T17:46:51;23.20;38.90
36280;DHT22;22317;47.936;12.742;2022-09-06T17:49:17;23.00;39.30
36280;DHT22;22317;47.936;12.742;2022-09-06T17:51:44;22.80;39.70
36280;DHT22;22317;47.936;12.742;2022-09-06T17:54:11;22.60;40.30
36280;DHT22;22317;47.936;12.742;2022-09-06T17:56:38;22.40;40.70
36280;DHT22;22317;47.936;12.742;2022-09-06T17:59:06;22.20;41.10
36280;DHT22;22317;47.936;12.742;2022-09-06T18:01:34;22.00;41.70
36280;DHT22;22317;47.936;12.742;2022-09-06T18:04:06;21.80;42.20
36280;DHT22;22317;47.936;12.742;2022-09-06T18:06:33;21.60;42.60
36280;DHT22;22317;47.936;12.742;2022-09-06T18:09:12;21.40;43.00
36280;DHT22;22317;47.936;12.742;2022-09-06T18:14:08;21.10;43.30
36280;DHT22;22317;47.936;12.742;2022-09-06T18:16:36;21.00;44.30
36280;DHT22;22317;47.936;12.742;2022-09-06T18:19:03;22.40;45.50
36280;DHT22;22317;47.936;12.742;2022-09-06T18:21:30;20.80;44.90
36280;DHT22;22317;47.936;12.742;2022-09-06T18:23:57;20.60;45.00
36280;DHT22;22317;47.936;12.742;2022-09-06T18:26:23;20.50;45.40
36280;DHT22;22317;47.936;12.742;2022-09-06T18:31:19;20.20;45.50